Time;durP1;ratioP1;P1;durP2;ratioP2;P2;SDS_P1;SDS_P2;PMS_P1;PMS_P2;Temp;Humidity;BMP_temperature;BMP_pressure;BME280_temperature;BME280_humidity;BME280_pressure;Samples;Min_cycle;Max_cycle;Signal;HPM_P1;HPM_P2
2022/01/31 00:01:20;;;;;;;11.07;3.07;;;6.60;95.60;;;;;;5055769;28;20464;-82
2022/01/31 00:03:52;;;;;;;8.57;3.03;;;6.70;95.40;;;;;;5062315;28;20463;-83
2022/01/31 00:06:38;;;;;;;13.13;3.87;;;6.80;95.10;;;;;;5050029;28;20858;-84
2022/01/31 00:09:15;;;;;;;6.63;3.00;;;6.70;95.20;;;;;;5062568;28;20468;-84
2022/01/31 00:15:28;;;;;;;6.50;3.70;;;6.60;95.10;;;;;;5059209;28;20992;-86
2022/01/31 00:18:30;;;;;;;6.70;3.67;;;6.60;95.30;;;;;;5068627;28;20469;-83
2022/01/31 00:21:29;;;;;;;6.63;2.57;;;6.40;95.60;;;;;;5037018;28;21275;-84
2022/01/31 00:24:12;;;;;;;5.57;3.00;;;6.60;95.50;;;;;;5047680;28;21356;-86
2022/01/31 00:27:10;;;;;;;8.77;3.10;;;6.70;95.20;;;;;;5047230;28;20473;-83
2022/01/31 00:29:49;;;;;;;5.13;2.93;;;6.50;95.40;;;;;;5044202;28;20461;-83
2022/01/31 00:32:35;;;;;;;5.57;3.23;;;6.60;95.50;;;;;;5048519;28;20463;-85
2022/01/31 00:35:36;;;;;;;12.87;3.70;;;6.60;95.70;;;;;;5035468;28;20459;-84
2022/01/31 00:38:34;;;;;;;7.53;3.20;;;6.70;95.50;;;;;;5047375;28;20485;-82
2022/01/31 00:41:21;;;;;;;8.43;2.93;;;6.70;95.60;;;;;;5047992;28;21135;-85
2022/01/31 00:47:04;;;;;;;4.53;2.80;;;6.60;96.00;;;;;;5026462;28;20465;-86
2022/01/31 00:49:48;;;;;;;4.00;2.40;;;6.60;95.70;;;;;;5029825;28;20467;-83
2022/01/31 00:52:51;;;;;;;4.93;3.07;;;6.70;95.50;;;;;;5044606;28;20488;-83
2022/01/31 00:55:40;;;;;;;6.07;2.97;;;6.60;95.50;;;;;;5047857;28;20462;-82
2022/01/31 00:58:21;;;;;;;6.77;2.80;;;6.60;95.80;;;;;;5030321;28;20484;-82
2022/01/31 01:01:00;;;;;;;9.50;2.80;;;6.60;95.90;;;;;;5029558;28;20552;-83
2022/01/31 01:03:53;;;;;;;9.60;2.97;;;7.00;96.00;;;;;;5032104;28;20493;-83
2022/01/31 01:06:43;;;;;;;10.13;2.83;;;6.70;95.80;;;;;;5051609;28;20542;-85
2022/01/31 01:09:55;;;;;;;7.30;2.43;;;6.60;95.90;;;;;;5047793;28;20483;-86
2022/01/31 01:12:54;;;;;;;9.13;3.23;;;6.70;96.20;;;;;;5057045;28;20470;-88
2022/01/31 01:15:55;;;;;;;6.20;2.67;;;6.70;96.10;;;;;;5042620;28;20510;-81
2022/01/31 01:18:35;;;;;;;5.80;2.70;;;6.80;96.00;;;;;;5043292;28;20549;-87
2022/01/31 01:21:35;;;;;;;5.87;2.10;;;6.80;95.80;;;;;;5053764;28;20456;-84
2022/01/31 01:24:19;;;;;;;9.37;3.50;;;6.80;96.00;;;;;;5048531;28;20453;-83
2022/01/31 01:27:08;;;;;;;9.57;2.77;;;6.70;96.10;;;;;;5035539;28;21376;-84
2022/01/31 01:29:42;;;;;;;6.77;2.87;;;6.70;96.40;;;;;;5042008;28;20496;-83
2022/01/31 01:32:23;;;;;;;8.13;3.57;;;6.60;96.60;;;;;;5045263;28;20557;-86
2022/01/31 01:35:25;;;;;;;7.33;2.97;;;6.70;96.60;;;;;;4955847;28;20496;-87
2022/01/31 01:38:15;;;;;;;6.57;2.50;;;6.60;96.60;;;;;;4962601;28;20474;-85
2022/01/31 01:41:25;;;;;;;5.80;2.70;;;6.80;96.60;;;;;;4951829;28;20463;-85
2022/01/31 01:44:08;;;;;;;6.80;3.03;;;6.70;96.80;;;;;;4946528;28;20458;-86
2022/01/31 01:47:25;;;;;;;;;;;;;;;;;;;;;
2022/01/31 01:50:28;;;;;;;5.70;2.50;;;6.90;96.70;;;;;;4963830;28;20532;-83
2022/01/31 01:56:09;;;;;;;10.70;2.77;;;6.80;97.00;;;;;;4959790;28;20466;-82
2022/01/31 01:59:10;;;;;;;11.03;2.53;;;7.00;97.00;;;;;;4945241;28;20471;-82
2022/01/31 02:02:08;;;;;;;6.53;2.30;;;6.90;96.90;;;;;;4944524;28;20480;-86
2022/01/31 02:05:20;;;;;;;13.70;3.50;;;6.80;97.10;;;;;;4959450;28;20458;-85
2022/01/31 02:08:18;;;;;;;5.90;2.27;;;6.90;97.10;;;;;;4948685;28;20565;-87
2022/01/31 02:11:20;;;;;;;6.70;2.23;;;6.90;97.50;;;;;;4964105;28;21185;-88
2022/01/31 02:14:05;;;;;;;8.27;2.93;;;7.00;97.60;;;;;;5049671;28;20477;-82
2022/01/31 02:16:49;;;;;;;7.47;2.87;;;6.90;97.60;;;;;;5030726;28;20464;-83
2022/01/31 02:19:37;;;;;;;11.47;2.30;;;7.00;98.00;;;;;;5046259;28;20537;-84
2022/01/31 02:22:30;;;;;;;9.13;4.20;;;7.00;97.90;;;;;;5023742;28;20446;-84
2022/01/31 02:25:31;;;;;;;9.07;2.43;;;7.00;98.10;;;;;;5031128;28;21551;-85
2022/01/31 02:28:07;;;;;;;8.30;2.80;;;7.00;98.20;;;;;;5045085;23;20491;-83
2022/01/31 02:30:39;;;;;;;7.43;2.70;;;7.10;98.30;;;;;;5023635;28;20461;-82
2022/01/31 02:33:43;;;;;;;;;;;;;;;;;;;;;
2022/01/31 02:39:39;;;;;;;7.87;2.93;;;7.10;98.20;;;;;;4957768;28;20498;-83
2022/01/31 02:42:26;;;;;;;5.60;2.47;;;7.10;98.30;;;;;;4969146;28;20480;-84
2022/01/31 02:45:13;;;;;;;4.40;2.23;;;7.10;98.20;;;;;;4959646;28;20708;-84
2022/01/31 02:47:57;;;;;;;8.27;2.73;;;7.40;98.20;;;;;;4961676;28;20522;-82
2022/01/31 02:50:59;;;;;;;4.10;2.60;;;7.20;98.30;;;;;;4937161;29;20538;-81
2022/01/31 02:53:56;;;;;;;7.70;2.00;;;7.20;98.70;;;;;;4944692;29;20490;-85
2022/01/31 02:56:43;;;;;;;11.00;2.73;;;7.10;99.00;;;;;;4945950;28;20535;-81
2022/01/31 02:59:21;;;;;;;7.90;2.70;;;6.90;99.90;;;;;;4934261;29;20509;-82
2022/01/31 03:01:49;;;;;;;13.40;4.40;;;6.90;99.90;;;;;;4928912;29;20463;-83
2022/01/31 03:04:41;;;;;;;5.10;2.00;;;6.90;99.90;;;;;;4944775;29;20558;-81
2022/01/31 03:07:25;;;;;;;5.53;2.10;;;6.80;99.90;;;;;;4948522;28;20481;-84
2022/01/31 03:10:18;;;;;;;6.63;1.80;;;7.00;99.90;;;;;;4945894;29;20480;-83
2022/01/31 03:13:02;;;;;;;7.07;1.93;;;6.90;99.90;;;;;;4931222;28;20477;-85
2022/01/31 03:15:43;;;;;;;3.57;2.00;;;6.70;99.90;;;;;;4945397;28;20480;-82
2022/01/31 03:18:19;;;;;;;6.90;1.50;;;7.00;99.90;;;;;;4949747;28;20484;-82
2022/01/31 03:21:00;;;;;;;5.57;2.70;;;7.00;99.90;;;;;;4961392;28;20464;-83
2022/01/31 03:23:51;;;;;;;;;;;;;;;;;;;;;
2022/01/31 03:26:24;;;;;;;6.87;1.70;;;6.80;99.90;;;;;;4961656;28;20466;-82
2022/01/31 03:29:22;;;;;;;2.33;1.97;;;6.90;99.90;;;;;;4960746;28;20546;-88
2022/01/31 03:31:59;;;;;;;5.23;1.77;;;6.70;99.90;;;;;;4954771;29;20889;-81
2022/01/31 03:34:39;;;;;;;7.50;2.87;;;6.70;99.90;;;;;;4955782;28;20485;-84
2022/01/31 03:37:26;;;;;;;3.30;1.80;;;6.70;99.90;;;;;;4955183;28;20534;-83
2022/01/31 03:39:58;;;;;;;3.53;1.53;;;6.90;99.90;;;;;;4958987;29;20544;-83
2022/01/31 03:42:40;;;;;;;2.70;1.60;;;6.60;99.90;;;;;;4971678;28;20476;-87
2022/01/31 03:45:14;;;;;;;1.63;1.53;;;6.50;99.90;;;;;;4948687;29;20467;-81
2022/01/31 03:48:02;;;;;;;9.20;1.83;;;6.50;99.90;;;;;;4964007;28;20484;-81
2022/01/31 03:50:58;;;;;;;3.83;1.30;;;6.40;99.90;;;;;;4960620;29;20481;-85
2022/01/31 03:53:36;;;;;;;3.63;1.20;;;6.50;99.90;;;;;;4971139;28;20450;-88
2022/01/31 03:56:22;;;;;;;1.97;1.30;;;6.50;99.90;;;;;;4959487;29;20487;-87
2022/01/31 03:59:03;;;;;;;3.77;1.83;;;6.50;99.90;;;;;;4969951;29;20461;-88
2022/01/31 04:01:48;;;;;;;1.67;1.23;;;6.40;99.90;;;;;;4954354;28;20596;-88
2022/01/31 04:04:21;;;;;;;1.90;1.60;;;6.50;99.90;;;;;;4958473;28;20515;-81
2022/01/31 04:07:03;;;;;;;1.30;1.20;;;6.60;99.90;;;;;;4955451;28;20472;-86
2022/01/31 04:09:56;;;;;;;4.80;1.80;;;6.50;99.90;;;;;;4955438;29;20510;-87
2022/01/31 04:13:16;;;;;;;1.87;1.40;;;6.60;99.90;;;;;;4962767;28;20453;-88
2022/01/31 04:15:55;;;;;;;4.93;1.80;;;6.40;99.90;;;;;;4969126;28;20488;-82
2022/01/31 04:18:41;;;;;;;2.87;1.13;;;6.40;99.90;;;;;;4947345;28;20587;-81
2022/01/31 04:21:33;;;;;;;1.97;1.77;;;6.40;99.90;;;;;;4960553;28;21326;-86
2022/01/31 04:24:30;;;;;;;2.63;1.90;;;6.40;99.90;;;;;;4946500;29;20464;-84
2022/01/31 04:27:20;;;;;;;5.73;2.43;;;6.40;99.90;;;;;;4889190;29;20492;-81
2022/01/31 04:30:18;;;;;;;1.83;1.50;;;6.40;99.90;;;;;;4900574;29;20558;-83
2022/01/31 04:33:11;;;;;;;4.90;2.53;;;6.50;99.90;;;;;;4888544;29;20483;-85
2022/01/31 04:38:58;;;;;;;2.43;1.97;;;6.40;99.90;;;;;;4897616;29;20558;-81
2022/01/31 04:41:58;;;;;;;3.20;1.67;;;6.50;99.90;;;;;;4903172;29;20512;-83
2022/01/31 04:44:49;;;;;;;3.10;1.90;;;6.40;99.90;;;;;;4905654;29;20463;-83
2022/01/31 04:47:36;;;;;;;3.17;1.40;;;6.50;99.90;;;;;;4888112;29;20483;-84
2022/01/31 04:50:27;;;;;;;1.57;1.40;;;6.40;99.90;;;;;;4894316;29;20460;-80
2022/01/31 04:53:33;;;;;;;1.83;1.50;;;6.60;99.90;;;;;;4865157;29;20466;-83
2022/01/31 04:56:27;;;;;;;1.97;1.17;;;6.50;99.90;;;;;;4873618;29;20465;-83
2022/01/31 04:59:48;;;;;;;3.33;1.87;;;6.50;99.90;;;;;;4921666;29;20989;-82
2022/01/31 05:03:11;;;;;;;3.87;1.63;;;6.90;99.90;;;;;;4831455;29;20442;-83
2022/01/31 05:06:18;;;;;;;3.33;2.03;;;6.70;99.90;;;;;;4809849;29;20545;-81
2022/01/31 05:09:44;;;;;;;2.30;1.80;;;6.80;99.90;;;;;;4811877;29;20930;-83
2022/01/31 05:12:53;;;;;;;2.43;1.80;;;6.80;99.90;;;;;;4762355;29;20468;-82
2022/01/31 05:16:45;;;;;;;2.27;2.07;;;6.90;99.90;;;;;;5073233;27;20614;-82
2022/01/31 05:22:56;;;;;;;4.30;1.90;;;6.90;99.90;;;;;;5023067;28;20536;-83
2022/01/31 05:25:50;;;;;;;5.20;2.53;;;7.00;99.90;;;;;;5019272;28;20455;-82
2022/01/31 05:28:49;;;;;;;4.17;2.20;;;7.00;99.90;;;;;;5018740;28;20530;-86
2022/01/31 05:31:48;;;;;;;5.73;2.67;;;7.10;99.90;;;;;;5002215;28;20461;-83
2022/01/31 05:35:05;;;;;;;;;;;;;;;;;;;;;
2022/01/31 05:38:14;;;;;;;3.90;2.93;;;7.10;99.90;;;;;;5000740;28;20524;-84
2022/01/31 05:41:04;;;;;;;6.70;3.67;;;7.30;99.90;;;;;;4950159;29;20453;-83
2022/01/31 05:44:23;;;;;;;5.73;2.67;;;7.10;99.90;;;;;;4972480;28;20484;-82
2022/01/31 05:47:16;;;;;;;8.20;3.10;;;7.10;99.90;;;;;;4988783;22;20573;-83
2022/01/31 05:50:15;;;;;;;3.73;2.77;;;7.20;99.90;;;;;;5092515;28;20464;-82
2022/01/31 05:53:56;;;;;;;5.83;2.83;;;7.20;99.90;;;;;;5090151;28;20445;-81
2022/01/31 05:57:38;;;;;;;5.33;3.40;;;7.20;99.90;;;;;;5058667;28;20463;-82
2022/01/31 06:00:37;;;;;;;5.33;2.90;;;7.20;99.90;;;;;;5048743;28;20465;-82
2022/01/31 06:06:51;;;;;;;5.87;2.87;;;7.20;99.90;;;;;;5053523;28;22602;-84
2022/01/31 06:16:53;;;;;;;5.93;2.70;;;7.30;99.90;;;;;;5006292;28;20439;-83
2022/01/31 06:19:49;;;;;;;4.60;2.77;;;7.30;99.90;;;;;;4997324;28;20465;-86
2022/01/31 06:22:33;;;;;;;3.73;2.53;;;7.30;99.90;;;;;;5080198;28;20447;-82
2022/01/31 06:25:14;;;;;;;7.03;2.53;;;7.30;99.90;;;;;;5084479;28;20457;-82
2022/01/31 06:28:04;;;;;;;5.90;2.50;;;7.30;99.90;;;;;;5018506;28;20558;-82
2022/01/31 06:30:54;;;;;;;11.33;2.50;;;7.30;99.90;;;;;;5039825;28;20606;-83
2022/01/31 06:37:12;;;;;;;2.70;1.70;;;7.40;99.90;;;;;;5039668;28;20492;-83
2022/01/31 06:39:50;;;;;;;8.33;2.73;;;7.40;99.90;;;;;;5019604;28;20453;-83
2022/01/31 06:43:00;;;;;;;7.03;2.10;;;7.50;99.90;;;;;;5017710;28;20593;-82
2022/01/31 06:49:07;;;;;;;8.00;1.80;;;7.40;99.90;;;;;;4958186;28;20528;-83
2022/01/31 06:51:51;;;;;;;8.13;1.63;;;7.40;99.90;;;;;;5019455;28;20476;-83
2022/01/31 06:54:36;;;;;;;9.07;3.13;;;7.40;99.90;;;;;;5014923;28;20494;-84
2022/01/31 06:57:12;;;;;;;9.03;2.57;;;7.50;99.90;;;;;;5014725;28;20473;-85
2022/01/31 07:00:18;;;;;;;4.33;1.43;;;7.40;99.90;;;;;;5021859;28;20457;-82
2022/01/31 07:03:10;;;;;;;10.03;2.43;;;7.40;99.90;;;;;;5022415;28;20978;-84
2022/01/31 07:05:55;;;;;;;2.80;1.90;;;7.40;99.90;;;;;;5064528;28;20448;-83
2022/01/31 07:08:42;;;;;;;5.10;1.90;;;7.40;99.90;;;;;;5070639;28;20475;-85
2022/01/31 07:11:39;;;;;;;;;;;;;;;;;;;;;
2022/01/31 07:14:34;;;;;;;7.70;1.90;;;7.40;99.90;;;;;;5084613;28;20475;-80
2022/01/31 07:17:27;;;;;;;6.47;1.70;;;7.40;99.90;;;;;;5059079;28;20475;-85
2022/01/31 07:20:22;;;;;;;7.60;2.60;;;7.40;99.90;;;;;;5093503;28;20459;-82
2022/01/31 07:27:30;;;;;;;8.23;2.77;;;7.20;99.90;;;;;;5065880;28;20936;-84
2022/01/31 07:37:55;;;;;;;4.87;2.53;;;7.10;99.90;;;;;;4969811;28;20521;-81
2022/01/31 07:40:42;;;;;;;2.70;2.27;;;7.20;99.90;;;;;;4988251;28;20515;-85
2022/01/31 07:43:30;;;;;;;8.53;2.30;;;6.90;99.90;;;;;;4993333;28;20839;-84
2022/01/31 07:46:20;;;;;;;5.60;2.07;;;6.90;99.90;;;;;;4993959;28;21006;-84
2022/01/31 07:49:02;;;;;;;2.13;1.90;;;6.80;99.90;;;;;;5045408;28;21034;-87
2022/01/31 07:52:04;;;;;;;2.70;2.20;;;6.70;99.90;;;;;;5047855;28;20467;-82
2022/01/31 07:54:38;;;;;;;2.10;1.60;;;6.80;99.90;;;;;;5071957;28;20480;-83
2022/01/31 07:57:28;;;;;;;3.37;1.30;;;6.70;99.90;;;;;;5052347;28;20473;-84
2022/01/31 08:00:10;;;;;;;2.40;1.30;;;6.90;99.90;;;;;;5070254;28;20463;-86
2022/01/31 08:02:53;;;;;;;6.13;1.70;;;6.70;99.90;;;;;;5071884;28;21002;-86
2022/01/31 08:06:16;;;;;;;6.80;1.80;;;6.70;99.90;;;;;;5069050;28;20470;-82
2022/01/31 08:09:09;;;;;;;4.83;1.70;;;6.70;99.90;;;;;;5068371;28;20491;-85
2022/01/31 08:11:56;;;;;;;5.03;1.20;;;6.70;99.90;;;;;;5068726;28;20472;-84
2022/01/31 08:14:48;;;;;;;8.53;2.63;;;6.70;99.90;;;;;;5070556;28;20870;-84
2022/01/31 08:17:59;;;;;;;4.63;1.80;;;6.70;99.90;;;;;;5045173;28;21054;-83
2022/01/31 08:20:37;;;;;;;5.80;2.03;;;6.80;99.90;;;;;;5078418;28;20502;-82
2022/01/31 08:27:12;;;;;;;4.23;1.47;;;6.80;99.90;;;;;;5082601;28;20494;-82
2022/01/31 08:30:09;;;;;;;;;;;;;;;;;;;;;
2022/01/31 08:33:31;;;;;;;5.73;2.00;;;6.80;99.90;;;;;;5087336;28;20456;-81
2022/01/31 08:36:42;;;;;;;7.10;2.57;;;6.90;99.90;;;;;;5085928;28;20910;-85
2022/01/31 08:39:27;;;;;;;6.90;1.67;;;6.90;99.90;;;;;;5080927;28;20455;-81
2022/01/31 08:42:35;;;;;;;9.23;2.77;;;6.90;99.90;;;;;;5080626;28;20456;-82
2022/01/31 08:45:45;;;;;;;5.07;2.07;;;7.00;99.90;;;;;;5085879;28;20431;-84
2022/01/31 08:48:38;;;;;;;3.17;1.50;;;6.90;99.90;;;;;;5080203;28;20593;-83
2022/01/31 08:51:53;;;;;;;6.00;2.10;;;7.00;99.90;;;;;;5076177;28;20459;-83
2022/01/31 08:54:46;;;;;;;5.07;1.93;;;6.90;99.90;;;;;;5080468;28;20566;-86
2022/01/31 08:57:27;;;;;;;4.90;2.10;;;6.90;99.90;;;;;;5083710;28;20461;-85
2022/01/31 09:00:08;;;;;;;9.50;2.50;;;6.90;99.90;;;;;;5086036;28;20490;-83
2022/01/31 09:02:51;;;;;;;5.77;1.73;;;6.90;99.90;;;;;;5098519;28;20878;-85
2022/01/31 09:05:44;;;;;;;5.70;2.00;;;6.80;99.90;;;;;;5087498;28;21051;-85
2022/01/31 09:09:05;;;;;;;6.10;1.60;;;6.90;99.90;;;;;;5087038;28;20998;-82
2022/01/31 09:11:57;;;;;;;4.03;2.03;;;6.80;99.90;;;;;;5086329;28;20513;-81
2022/01/31 09:15:02;;;;;;;6.77;2.07;;;6.80;99.90;;;;;;5081431;28;20479;-83
2022/01/31 09:17:48;;;;;;;2.17;1.50;;;6.80;99.90;;;;;;5054076;28;20480;-85
2022/01/31 09:20:32;;;;;;;5.53;1.70;;;6.80;99.90;;;;;;5028045;28;20457;-82
2022/01/31 09:23:23;;;;;;;4.50;2.17;;;6.70;99.90;;;;;;5021984;28;20458;-80
2022/01/31 09:26:09;;;;;;;8.30;2.33;;;6.70;99.90;;;;;;5044475;28;20648;-82
2022/01/31 09:28:54;;;;;;;3.70;1.50;;;6.70;99.90;;;;;;5031873;28;20488;-82
2022/01/31 09:31:41;;;;;;;6.30;1.80;;;6.70;99.90;;;;;;5015647;28;20469;-81
2022/01/31 09:34:30;;;;;;;11.30;3.27;;;6.70;99.90;;;;;;5033548;28;20461;-82
2022/01/31 09:37:55;;;;;;;7.30;1.83;;;6.70;99.90;;;;;;5041163;28;21021;-79
2022/01/31 09:40:49;;;;;;;4.70;2.10;;;6.70;99.90;;;;;;4960854;29;20442;-85
2022/01/31 09:44:06;;;;;;;4.40;1.30;;;6.70;99.90;;;;;;4969374;28;20477;-86
2022/01/31 09:49:39;;;;;;;7.37;1.70;;;6.70;99.90;;;;;;4968802;28;20468;-81
2022/01/31 09:52:44;;;;;;;4.60;1.50;;;6.60;99.90;;;;;;5008148;28;21154;-83
2022/01/31 09:55:58;;;;;;;3.53;1.30;;;6.60;99.90;;;;;;5010187;28;20467;-82
2022/01/31 09:58:42;;;;;;;7.97;1.67;;;6.70;99.90;;;;;;4924332;29;20489;-83
2022/01/31 10:01:22;;;;;;;3.47;1.80;;;6.70;99.90;;;;;;5022534;28;21216;-82
2022/01/31 10:04:35;;;;;;;6.20;1.77;;;6.70;99.90;;;;;;5001549;28;20452;-81
2022/01/31 10:11:20;;;;;;;12.20;2.23;;;6.60;99.90;;;;;;5033140;28;20433;-84
2022/01/31 10:18:08;;;;;;;6.13;2.40;;;6.60;99.90;;;;;;5030140;28;20481;-81
2022/01/31 10:21:08;;;;;;;16.57;2.93;;;6.60;99.90;;;;;;5034330;28;21224;-83
2022/01/31 10:24:01;;;;;;;6.97;2.03;;;6.60;99.90;;;;;;5035539;28;20473;-82
2022/01/31 10:30:12;;;;;;;7.40;2.77;;;6.60;99.90;;;;;;5029107;28;20469;-83
2022/01/31 10:33:27;;;;;;;13.10;2.10;;;6.60;99.90;;;;;;4988579;28;20462;-82
2022/01/31 10:36:43;;;;;;;5.30;1.50;;;6.60;99.90;;;;;;5003781;28;20572;-83
2022/01/31 10:53:27;;;;;;;10.27;2.40;;;6.50;99.90;;;;;;5016722;28;20506;-82
2022/01/31 10:56:05;;;;;;;7.23;2.27;;;6.40;99.90;;;;;;5027522;28;20486;-81
2022/01/31 10:59:08;;;;;;;5.53;1.37;;;6.60;99.90;;;;;;5018739;28;20469;-82
2022/01/31 11:02:05;;;;;;;9.63;3.67;;;6.70;99.90;;;;;;4954750;28;20560;-81
2022/01/31 11:05:36;;;;;;;6.10;2.37;;;6.60;99.90;;;;;;5015772;28;20488;-82
2022/01/31 11:08:36;;;;;;;9.73;2.00;;;7.10;99.90;;;;;;5001868;28;20464;-81
2022/01/31 11:11:27;;;;;;;6.50;1.83;;;6.60;99.90;;;;;;5004248;28;20559;-81
2022/01/31 11:14:26;;;;;;;9.00;1.70;;;6.60;99.90;;;;;;5035316;28;20491;-82
2022/01/31 11:17:37;;;;;;;3.93;2.00;;;6.60;99.90;;;;;;5016367;28;20580;-82
2022/01/31 11:20:34;;;;;;;7.83;2.63;;;6.50;99.90;;;;;;5034629;28;20456;-83
2022/01/31 11:23:49;;;;;;;7.63;2.30;;;6.60;99.90;;;;;;5015771;28;20461;-81
2022/01/31 11:27:15;;;;;;;5.13;2.10;;;6.60;99.90;;;;;;5015347;28;20458;-82
2022/01/31 11:29:53;;;;;;;4.53;1.80;;;6.60;99.90;;;;;;4979382;28;20450;-82
2022/01/31 11:32:56;;;;;;;6.70;2.40;;;6.60;99.90;;;;;;5019060;28;20813;-82
2022/01/31 11:35:43;;;;;;;9.70;2.10;;;6.60;99.90;;;;;;5006818;28;20514;-82
2022/01/31 11:38:31;;;;;;;7.97;3.00;;;6.90;99.90;;;;;;5014850;28;20457;-83
2022/01/31 11:41:35;;;;;;;9.10;3.37;;;6.60;99.90;;;;;;4938981;29;20460;-83
2022/01/31 11:45:08;;;;;;;10.10;2.20;;;6.70;99.90;;;;;;4948180;29;20507;-83
2022/01/31 11:48:17;;;;;;;7.97;2.50;;;6.70;99.90;;;;;;4957382;29;20802;-84
2022/01/31 11:51:05;;;;;;;6.03;2.27;;;6.60;99.90;;;;;;4942652;29;20491;-83
2022/01/31 11:53:49;;;;;;;6.90;2.50;;;6.70;99.90;;;;;;4952823;29;20481;-83
2022/01/31 11:56:32;;;;;;;9.17;2.70;;;6.70;99.90;;;;;;4951039;29;20484;-83
2022/01/31 12:03:00;;;;;;;11.00;2.53;;;6.70;99.90;;;;;;4951138;29;20690;-82
2022/01/31 12:06:23;;;;;;;6.50;2.13;;;6.60;99.90;;;;;;4946847;29;20984;-81
2022/01/31 12:09:46;;;;;;;7.23;2.43;;;6.70;99.90;;;;;;4876337;29;20468;-82
2022/01/31 12:22:54;;;;;;;10.23;3.77;;;6.80;99.90;;;;;;5030379;28;20562;-82
2022/01/31 12:26:10;;;;;;;10.27;2.60;;;6.80;99.90;;;;;;5015905;28;20467;-82
2022/01/31 12:29:02;;;;;;;8.80;3.00;;;6.90;99.90;;;;;;5014855;28;20521;-82
2022/01/31 12:32:27;;;;;;;16.53;4.47;;;6.30;99.90;;;;;;5017052;28;20522;-84
2022/01/31 12:35:35;;;;;;;11.93;3.07;;;6.90;99.90;;;;;;5013236;28;21080;-84
2022/01/31 12:38:04;;;;;;;12.40;3.37;;;7.00;99.90;;;;;;5037332;28;20461;-83
2022/01/31 12:46:55;;;;;;;10.50;2.83;;;7.20;99.90;;;;;;5030056;28;20476;-84
2022/01/31 12:50:24;;;;;;;7.90;2.67;;;6.80;99.90;;;;;;5015529;28;21137;-83
2022/01/31 12:53:06;;;;;;;12.43;5.60;;;6.80;99.90;;;;;;5030216;28;20464;-80
2022/01/31 12:56:20;;;;;;;10.67;2.40;;;6.80;99.90;;;;;;5018371;28;20523;-82
2022/01/31 12:59:34;;;;;;;12.20;3.67;;;6.80;99.90;;;;;;5032668;28;20455;-83
2022/01/31 13:02:26;;;;;;;9.20;2.57;;;6.70;99.90;;;;;;5012338;28;20461;-83
2022/01/31 13:05:12;;;;;;;10.83;2.67;;;6.80;99.90;;;;;;5006618;28;20500;-82
2022/01/31 13:07:56;;;;;;;8.13;2.93;;;6.80;99.90;;;;;;5018558;28;20453;-83
2022/01/31 13:14:12;;;;;;;9.70;3.33;;;7.10;99.90;;;;;;5017299;28;20560;-83
2022/01/31 13:17:18;;;;;;;;;;;;;;;;;;;;;
2022/01/31 13:20:29;;;;;;;7.03;2.70;;;6.70;99.90;;;;;;5041029;28;20461;-83
2022/01/31 13:23:33;;;;;;;7.57;2.40;;;6.70;99.90;;;;;;5018285;28;20468;-82
2022/01/31 13:26:30;;;;;;;11.50;3.10;;;6.50;99.90;;;;;;5040692;28;20469;-82
2022/01/31 13:29:43;;;;;;;12.50;3.20;;;7.20;99.90;;;;;;5037202;28;20456;-82
2022/01/31 13:32:22;;;;;;;12.57;3.43;;;6.80;99.90;;;;;;5031486;28;20469;-82
2022/01/31 13:35:11;;;;;;;7.27;2.60;;;6.80;99.90;;;;;;5034886;28;20496;-83
2022/01/31 13:38:05;;;;;;;9.33;2.80;;;6.80;99.90;;;;;;5026050;28;20458;-82
2022/01/31 13:41:10;;;;;;;7.73;3.80;;;6.80;99.90;;;;;;5027557;28;20553;-81
2022/01/31 13:44:43;;;;;;;7.10;2.43;;;6.80;99.90;;;;;;5028150;28;20519;-83
2022/01/31 13:50:32;;;;;;;4.57;1.77;;;6.80;99.90;;;;;;5042719;28;20495;-83
2022/01/31 13:53:24;;;;;;;7.10;2.40;;;6.70;99.90;;;;;;5030226;28;20463;-82
2022/01/31 13:59:30;;;;;;;9.00;3.50;;;6.70;99.90;;;;;;5049722;28;20476;-82
2022/01/31 14:02:34;;;;;;;;;;;;;;;;;;;;;
2022/01/31 14:05:25;;;;;;;10.23;2.73;;;6.70;99.90;;;;;;5042891;28;20495;-82
2022/01/31 14:08:04;;;;;;;8.83;3.50;;;6.80;99.90;;;;;;5046150;28;20507;-82
2022/01/31 14:11:26;;;;;;;8.73;2.70;;;6.80;99.90;;;;;;5031512;28;20480;-81
2022/01/31 14:14:31;;;;;;;8.73;5.17;;;6.70;99.90;;;;;;5019380;28;20587;-82
2022/01/31 14:17:32;;;;;;;7.20;3.53;;;6.70;99.90;;;;;;5030275;28;20473;-83
2022/01/31 14:20:58;;;;;;;6.23;2.30;;;6.70;99.90;;;;;;5016907;28;20457;-82
2022/01/31 14:23:57;;;;;;;9.67;2.27;;;6.70;99.90;;;;;;5033819;28;20487;-81
2022/01/31 14:27:14;;;;;;;7.73;2.30;;;6.80;99.90;;;;;;5019280;28;20457;-80
2022/01/31 14:30:15;;;;;;;5.43;2.57;;;6.80;99.90;;;;;;5010893;28;20473;-81
2022/01/31 14:33:06;;;;;;;6.30;2.80;;;6.70;99.90;;;;;;5031945;28;20467;-82
2022/01/31 14:35:52;;;;;;;9.60;2.70;;;6.70;99.90;;;;;;5050322;28;20487;-82
2022/01/31 14:38:37;;;;;;;6.20;3.07;;;6.70;99.90;;;;;;5028198;28;20453;-83
2022/01/31 14:47:59;;;;;;;15.20;3.07;;;6.70;99.90;;;;;;5029670;28;20453;-82
2022/01/31 14:51:32;;;;;;;;;;;;;;;;;;;;;
2022/01/31 14:54:18;;;;;;;8.23;2.90;;;6.60;99.90;;;;;;5043348;28;20484;-82
2022/01/31 14:57:10;;;;;;;8.37;3.50;;;6.60;99.90;;;;;;4984591;28;20498;-82
2022/01/31 14:59:57;;;;;;;8.83;2.57;;;6.60;99.90;;;;;;5020193;28;20446;-83
2022/01/31 15:03:10;;;;;;;14.17;4.10;;;6.60;99.90;;;;;;5037769;28;20456;-82
2022/01/31 15:06:02;;;;;;;15.47;3.83;;;6.60;99.90;;;;;;5036620;28;20476;-82
2022/01/31 15:08:55;;;;;;;11.13;3.63;;;6.60;99.90;;;;;;5025666;28;20496;-81
2022/01/31 15:15:40;;;;;;;10.80;2.93;;;6.70;99.90;;;;;;5035619;28;21059;-83
2022/01/31 15:19:09;;;;;;;11.73;3.27;;;6.60;99.90;;;;;;5026902;28;20500;-82
2022/01/31 15:21:50;;;;;;;10.13;3.20;;;6.50;99.90;;;;;;5030997;28;20455;-82
2022/01/31 15:24:45;;;;;;;13.73;3.57;;;6.50;99.90;;;;;;5037502;28;20492;-83
2022/01/31 15:27:32;;;;;;;10.40;3.20;;;6.60;99.90;;;;;;5031709;28;20453;-83
2022/01/31 15:30:37;;;;;;;9.23;3.80;;;6.60;99.90;;;;;;5044120;28;20453;-82
2022/01/31 15:33:23;;;;;;;12.77;4.80;;;6.60;99.90;;;;;;5027113;28;20492;-82
2022/01/31 15:36:20;;;;;;;15.17;4.27;;;6.30;99.90;;;;;;4933109;29;20512;-83
2022/01/31 15:39:15;;;;;;;13.63;3.70;;;6.60;99.90;;;;;;4934434;29;20503;-82
2022/01/31 15:42:24;;;;;;;14.00;3.77;;;6.70;99.90;;;;;;4938655;29;20454;-84
2022/01/31 15:45:07;;;;;;;11.90;4.40;;;6.60;99.90;;;;;;4936963;29;20544;-82
2022/01/31 15:47:53;;;;;;;8.00;3.60;;;6.60;99.90;;;;;;4929568;29;20465;-82
2022/01/31 15:50:46;;;;;;;14.00;4.30;;;6.60;99.90;;;;;;4919170;29;20906;-82
2022/01/31 15:53:39;;;;;;;17.70;4.93;;;6.70;99.90;;;;;;4915759;29;20544;-81
2022/01/31 15:56:36;;;;;;;11.93;3.93;;;6.60;99.90;;;;;;4936092;29;21013;-82
2022/01/31 15:59:52;;;;;;;11.03;3.80;;;6.60;99.90;;;;;;4933672;29;20530;-82
2022/01/31 16:03:19;;;;;;;13.57;3.80;;;6.70;99.90;;;;;;4933725;29;20637;-81
2022/01/31 16:06:12;;;;;;;11.97;4.13;;;6.60;99.90;;;;;;4884816;29;20475;-83
2022/01/31 16:09:03;;;;;;;12.30;3.40;;;6.60;99.90;;;;;;4869141;29;20487;-82
2022/01/31 16:11:43;;;;;;;10.07;3.30;;;6.60;99.90;;;;;;4874002;29;20468;-81
2022/01/31 16:14:48;;;;;;;9.73;4.00;;;6.60;99.90;;;;;;4960773;28;20487;-80
2022/01/31 16:17:50;;;;;;;9.57;3.83;;;6.60;99.90;;;;;;4973822;28;20484;-81
2022/01/31 16:20:42;;;;;;;18.47;4.73;;;6.70;99.90;;;;;;5048163;22;20512;-87
2022/01/31 16:23:54;;;;;;;11.20;4.67;;;6.60;99.90;;;;;;5017558;28;20434;-83
2022/01/31 16:26:48;;;;;;;12.37;3.30;;;6.80;99.90;;;;;;5035343;28;20535;-82
2022/01/31 16:29:43;;;;;;;14.40;4.27;;;6.70;99.90;;;;;;5022074;28;20481;-80
2022/01/31 16:32:28;;;;;;;11.27;4.40;;;6.70;99.90;;;;;;5040982;28;20485;-86
2022/01/31 16:35:03;;;;;;;10.23;3.00;;;7.10;99.90;;;;;;5027833;28;20521;-85
2022/01/31 16:37:55;;;;;;;15.47;4.80;;;6.70;99.90;;;;;;5036067;28;20566;-83
2022/01/31 16:40:52;;;;;;;15.10;4.20;;;6.80;99.90;;;;;;5036207;23;20944;-83
2022/01/31 16:43:40;;;;;;;8.83;3.33;;;6.80;99.90;;;;;;5044834;28;20502;-84
2022/01/31 16:54:06;;;;;;;;;;;;;;;;;;;;;
2022/01/31 16:56:50;;;;;;;7.53;4.23;;;7.10;99.90;;;;;;5057311;28;20227;-82
2022/01/31 16:59:39;;;;;;;12.20;3.27;;;6.90;99.90;;;;;;5075865;28;20485;-82
2022/01/31 17:06:28;;;;;;;8.10;3.80;;;6.80;99.90;;;;;;4986778;28;20548;-83
2022/01/31 17:09:23;;;;;;;6.67;3.07;;;6.70;99.90;;;;;;5076668;28;20461;-82
2022/01/31 17:12:21;;;;;;;9.77;3.33;;;6.70;99.90;;;;;;5089867;28;21000;-82
2022/01/31 17:15:23;;;;;;;6.83;2.87;;;6.70;99.90;;;;;;5070259;28;20564;-80
2022/01/31 17:18:34;;;;;;;11.07;3.00;;;6.70;99.90;;;;;;5087526;28;20566;-83
2022/01/31 17:21:28;;;;;;;7.73;2.50;;;6.60;99.90;;;;;;5094345;28;20475;-83
2022/01/31 17:27:58;;;;;;;5.73;1.87;;;6.60;99.90;;;;;;5084188;28;20463;-86
2022/01/31 17:31:07;;;;;;;6.70;1.87;;;7.00;99.90;;;;;;5090190;28;20477;-84
2022/01/31 17:35:09;;;;;;;6.03;2.50;;;6.70;99.90;;;;;;5091790;28;20452;-83
2022/01/31 17:38:28;;;;;;;8.33;2.50;;;6.70;99.90;;;;;;5053611;28;20449;-85
2022/01/31 17:41:12;;;;;;;7.33;2.10;;;6.80;99.90;;;;;;5027727;28;20469;-84
2022/01/31 17:44:15;;;;;;;6.53;2.50;;;7.40;99.90;;;;;;5086558;28;20439;-82
2022/01/31 17:47:23;;;;;;;;;;;;;;;;;;;;;
2022/01/31 17:50:06;;;;;;;4.13;1.80;;;6.70;99.90;;;;;;5085313;28;20601;-81
2022/01/31 17:53:10;;;;;;;7.30;2.50;;;6.60;99.90;;;;;;5091927;28;20530;-86